KLM602 KLAX-EHAM
Flight info
| Callsign | KLM602 |
|---|---|
| Flight time | N/A |
| Altitude | 31000 |
| Route | ORCKA5 LAS Q70 BLIPP Q842 WINEN DCT KU54O DCT KD87U DCT KP18Y DCT AMENU DCT 55N095W 5830N09000W/N0486F330 63N080W 66N070W/M084F330 DCT CANEL DCT 68N060W 69N050W 6930N04000W 69N030W 6730N02000W/M084F350 64N010W DCT RIXUN/N0480F350 DCT ROKAN DCT TOPPA |
| Aircraft | B77W/H-SDE1E2E3FGHIJ2J3J4J5M1RWXY/LB1D1 |
Departure
| Time | 2026-04-24 02:01 |
|---|---|
| Airport | Los Angeles International Airport (KLAX) |
Arrival
| Time | N/A |
|---|---|
| Airport | Amsterdam Airport Schiphol (EHAM) |
| Time | Latitude | Longitude | Altitude | Speed | Heading |
|---|---|---|---|---|---|
| 2026-04-24 01:25 | 33.94279 | -118.41565 | 99 ft | 0 kts | 83° |
| 2026-04-24 01:26 | 33.94349 | -118.41575 | 98 ft | 0 kts | 83° |
| 2026-04-24 01:46 | 33.94348 | -118.41592 | 97 ft | 4 kts | 83° |
| 2026-04-24 01:47 | 33.94344 | -118.41625 | 97 ft | 4 kts | 83° |
| 2026-04-24 01:47 | 33.94342 | -118.41650 | 97 ft | 4 kts | 68° |
| 2026-04-24 01:47 | 33.94327 | -118.41670 | 97 ft | 4 kts | 7° |
| 2026-04-24 01:47 | 33.94302 | -118.41669 | 96 ft | 4 kts | 353° |
| 2026-04-24 01:48 | 33.94283 | -118.41666 | 97 ft | 0 kts | 353° |
| 2026-04-24 01:54 | 33.94309 | -118.41669 | 98 ft | 9 kts | 353° |
| 2026-04-24 01:55 | 33.94397 | -118.41682 | 97 ft | 14 kts | 353° |
| 2026-04-24 01:55 | 33.94496 | -118.41698 | 99 ft | 14 kts | 352° |
| 2026-04-24 01:55 | 33.94577 | -118.41710 | 98 ft | 10 kts | 351° |
| 2026-04-24 01:55 | 33.94634 | -118.41751 | 99 ft | 10 kts | 293° |
| 2026-04-24 01:56 | 33.94670 | -118.41819 | 99 ft | 10 kts | 335° |
| 2026-04-24 01:56 | 33.94723 | -118.41781 | 101 ft | 10 kts | 66° |
| 2026-04-24 01:56 | 33.94737 | -118.41697 | 98 ft | 10 kts | 81° |
| 2026-04-24 01:56 | 33.94746 | -118.41611 | 101 ft | 12 kts | 83° |
| 2026-04-24 01:57 | 33.94760 | -118.41470 | 102 ft | 20 kts | 83° |
| 2026-04-24 01:57 | 33.94791 | -118.41302 | 100 ft | 20 kts | 82° |
| 2026-04-24 01:57 | 33.94809 | -118.41132 | 100 ft | 20 kts | 82° |
| 2026-04-24 01:57 | 33.94826 | -118.40962 | 102 ft | 20 kts | 83° |
| 2026-04-24 01:58 | 33.94842 | -118.40791 | 99 ft | 20 kts | 83° |
| 2026-04-24 01:58 | 33.94862 | -118.40621 | 102 ft | 20 kts | 81° |
| 2026-04-24 01:58 | 33.94880 | -118.40451 | 101 ft | 20 kts | 83° |
| 2026-04-24 01:58 | 33.94897 | -118.40281 | 99 ft | 20 kts | 83° |
| 2026-04-24 01:59 | 33.94916 | -118.40188 | 101 ft | 7 kts | 47° |
| 2026-04-24 01:59 | 33.94964 | -118.40176 | 102 ft | 7 kts | 357° |
| 2026-04-24 01:59 | 33.95006 | -118.40203 | 105 ft | 7 kts | 301° |
| 2026-04-24 01:59 | 33.95009 | -118.40263 | 104 ft | 7 kts | 262° |
| 2026-04-24 02:00 | 33.95006 | -118.40291 | 103 ft | 3 kts | 264° |
| 2026-04-24 02:00 | 33.94998 | -118.40374 | 102 ft | 26 kts | 263° |
| 2026-04-24 02:00 | 33.94940 | -118.40933 | 102 ft | 109 kts | 263° |
| 2026-04-24 02:00 | 33.94804 | -118.42159 | 105 ft | 185 kts | 261° |
| 2026-04-24 02:01 | 33.94590 | -118.43821 | 582 ft | 213 kts | 260° |
| 2026-04-24 02:01 | 33.94342 | -118.45652 | 1482 ft | 227 kts | 261° |
| 2026-04-24 02:01 | 33.94121 | -118.47458 | 2372 ft | 213 kts | 264° |
| 2026-04-24 02:01 | 33.93922 | -118.49205 | 2947 ft | 211 kts | 264° |
| 2026-04-24 02:02 | 33.93750 | -118.51022 | 3208 ft | 227 kts | 263° |
| 2026-04-24 02:02 | 33.93574 | -118.52952 | 3536 ft | 237 kts | 264° |
| 2026-04-24 02:02 | 33.93377 | -118.54979 | 3872 ft | 250 kts | 264° |
| 2026-04-24 02:02 | 33.93188 | -118.57116 | 4277 ft | 262 kts | 264° |
| 2026-04-24 02:03 | 33.92574 | -118.61645 | 5017 ft | 285 kts | 248° |
| 2026-04-24 02:03 | 33.91429 | -118.63563 | 5628 ft | 286 kts | 216° |
| 2026-04-24 02:03 | 33.89603 | -118.64563 | 6248 ft | 288 kts | 187° |
| 2026-04-24 02:04 | 33.87632 | -118.64453 | 6756 ft | 291 kts | 161° |
| 2026-04-24 02:04 | 33.85866 | -118.63272 | 7283 ft | 294 kts | 135° |
| 2026-04-24 02:04 | 33.84735 | -118.61241 | 7832 ft | 297 kts | 108° |
| 2026-04-24 02:04 | 33.84513 | -118.58772 | 8224 ft | 302 kts | 77° |
| 2026-04-24 02:05 | 33.85337 | -118.56484 | 8737 ft | 298 kts | 53° |
| 2026-04-24 02:05 | 33.86575 | -118.54455 | 9207 ft | 304 kts | 51° |
| 2026-04-24 02:05 | 33.87840 | -118.52391 | 9724 ft | 310 kts | 52° |
| 2026-04-24 02:05 | 33.89121 | -118.50284 | 10242 ft | 315 kts | 52° |
| 2026-04-24 02:06 | 33.90439 | -118.48096 | 10434 ft | 333 kts | 52° |
| 2026-04-24 02:06 | 33.91832 | -118.45768 | 10593 ft | 352 kts | 52° |
| 2026-04-24 02:06 | 33.93298 | -118.43300 | 10756 ft | 372 kts | 53° |
| 2026-04-24 02:06 | 33.94798 | -118.40684 | 11029 ft | 387 kts | 54° |
| 2026-04-24 02:07 | 33.96330 | -118.37959 | 11471 ft | 396 kts | 54° |
| 2026-04-24 02:07 | 33.97889 | -118.35189 | 12091 ft | 401 kts | 53° |
| 2026-04-24 02:07 | 33.99465 | -118.32399 | 12739 ft | 405 kts | 53° |
| 2026-04-24 02:07 | 34.01042 | -118.29616 | 13313 ft | 410 kts | 53° |
| 2026-04-24 02:08 | 34.05654 | -118.21482 | 15052 ft | 420 kts | 53° |
| 2026-04-24 02:08 | 34.07312 | -118.18554 | 15558 ft | 426 kts | 53° |
| 2026-04-24 02:09 | 34.08993 | -118.15584 | 16043 ft | 432 kts | 53° |
| 2026-04-24 02:09 | 34.10698 | -118.12568 | 16566 ft | 437 kts | 53° |
| 2026-04-24 02:09 | 34.12416 | -118.09524 | 17114 ft | 441 kts | 53° |
| 2026-04-24 02:09 | 34.14153 | -118.06446 | 17660 ft | 446 kts | 53° |
| 2026-04-24 02:10 | 34.15907 | -118.03336 | 18184 ft | 450 kts | 52° |
| 2026-04-24 02:10 | 34.17682 | -118.00185 | 18654 ft | 455 kts | 52° |
| 2026-04-24 02:10 | 34.19442 | -117.97055 | 19161 ft | 457 kts | 52° |
| 2026-04-24 02:10 | 34.21241 | -117.93860 | 19425 ft | 462 kts | 52° |
| 2026-04-24 02:11 | 34.23058 | -117.90640 | 19985 ft | 462 kts | 52° |
| 2026-04-24 02:11 | 34.24853 | -117.87423 | 20560 ft | 463 kts | 53° |
| 2026-04-24 02:11 | 34.26665 | -117.84175 | 20951 ft | 468 kts | 53° |
| 2026-04-24 02:11 | 34.28497 | -117.80900 | 21374 ft | 472 kts | 53° |
| 2026-04-24 02:12 | 34.30344 | -117.77598 | 21826 ft | 476 kts | 53° |
| 2026-04-24 02:12 | 34.32207 | -117.74287 | 22300 ft | 475 kts | 53° |
| 2026-04-24 02:12 | 34.34072 | -117.70967 | 22709 ft | 480 kts | 53° |
| 2026-04-24 02:12 | 34.35942 | -117.67589 | 23048 ft | 486 kts | 53° |
| 2026-04-24 02:13 | 34.37868 | -117.64205 | 23510 ft | 488 kts | 51° |
| 2026-04-24 02:13 | 34.39863 | -117.60877 | 23946 ft | 488 kts | 50° |
| 2026-04-24 02:13 | 34.41890 | -117.57560 | 24282 ft | 492 kts | 50° |
| 2026-04-24 02:13 | 34.43904 | -117.54268 | 24612 ft | 495 kts | 50° |
| 2026-04-24 02:14 | 34.45956 | -117.50890 | 25008 ft | 498 kts | 51° |
| 2026-04-24 02:14 | 34.48004 | -117.47486 | 25367 ft | 501 kts | 51° |
| 2026-04-24 02:14 | 34.50055 | -117.44053 | 25724 ft | 504 kts | 51° |
| 2026-04-24 02:14 | 34.52108 | -117.40598 | 26051 ft | 507 kts | 51° |
| 2026-04-24 02:15 | 34.54176 | -117.37110 | 26377 ft | 509 kts | 51° |
| 2026-04-24 02:15 | 34.56250 | -117.33607 | 26707 ft | 512 kts | 51° |
| 2026-04-24 02:15 | 34.58333 | -117.30086 | 27019 ft | 515 kts | 51° |
| 2026-04-24 02:15 | 34.60426 | -117.26545 | 27322 ft | 517 kts | 51° |
| 2026-04-24 02:16 | 34.62530 | -117.22984 | 27621 ft | 520 kts | 51° |
| 2026-04-24 02:16 | 34.64616 | -117.19452 | 27905 ft | 522 kts | 51° |
| 2026-04-24 02:16 | 34.66739 | -117.15854 | 28126 ft | 525 kts | 51° |
| 2026-04-24 02:16 | 34.68868 | -117.12240 | 28387 ft | 528 kts | 51° |
| 2026-04-24 02:17 | 34.71008 | -117.08605 | 28660 ft | 530 kts | 51° |
| 2026-04-24 02:17 | 34.73159 | -117.04948 | 28859 ft | 533 kts | 51° |
| 2026-04-24 02:17 | 34.77499 | -116.97556 | 28946 ft | 538 kts | 51° |
| 2026-04-24 02:18 | 34.81842 | -116.90141 | 29051 ft | 539 kts | 51° |
| 2026-04-24 02:18 | 34.84021 | -116.86416 | 29453 ft | 538 kts | 51° |
| 2026-04-24 02:18 | 34.86180 | -116.82720 | 29904 ft | 535 kts | 51° |
| 2026-04-24 02:19 | 34.88334 | -116.79030 | 30265 ft | 533 kts | 51° |
| 2026-04-24 02:19 | 34.90481 | -116.75349 | 30549 ft | 532 kts | 51° |
| 2026-04-24 02:19 | 34.92711 | -116.71736 | 30786 ft | 531 kts | 46° |
| 2026-04-24 02:19 | 34.95157 | -116.68388 | 30878 ft | 529 kts | 43° |
| 2026-04-24 02:20 | 35.00219 | -116.61834 | 30922 ft | 530 kts | 43° |
| 2026-04-24 02:20 | 35.05233 | -116.55326 | 30941 ft | 528 kts | 43° |
| 2026-04-24 02:21 | 35.10225 | -116.48758 | 30912 ft | 527 kts | 43° |
| 2026-04-24 02:21 | 35.15201 | -116.42167 | 30918 ft | 527 kts | 43° |
| 2026-04-24 02:22 | 35.20168 | -116.35572 | 30949 ft | 528 kts | 43° |
| 2026-04-24 02:22 | 35.25144 | -116.28955 | 30926 ft | 529 kts | 43° |
| 2026-04-24 02:23 | 35.30132 | -116.22317 | 30937 ft | 530 kts | 43° |
| 2026-04-24 02:23 | 35.35140 | -116.15637 | 30934 ft | 531 kts | 43° |
| 2026-04-24 02:24 | 35.40135 | -116.08957 | 30948 ft | 532 kts | 43° |
| 2026-04-24 02:24 | 35.45133 | -116.02262 | 30953 ft | 532 kts | 43° |
| 2026-04-24 02:25 | 35.50095 | -115.95603 | 30963 ft | 532 kts | 43° |
| 2026-04-24 02:25 | 35.55084 | -115.88892 | 30959 ft | 531 kts | 43° |
| 2026-04-24 02:26 | 35.60064 | -115.82183 | 30976 ft | 531 kts | 43° |
| 2026-04-24 02:26 | 35.65037 | -115.75459 | 30982 ft | 531 kts | 43° |
| 2026-04-24 02:27 | 35.69974 | -115.68685 | 30978 ft | 531 kts | 44° |
| 2026-04-24 02:27 | 35.74892 | -115.61904 | 30994 ft | 531 kts | 44° |
| 2026-04-24 02:28 | 35.79816 | -115.55109 | 30991 ft | 532 kts | 44° |
| 2026-04-24 02:28 | 35.84718 | -115.48340 | 30989 ft | 534 kts | 44° |
| 2026-04-24 02:29 | 35.89664 | -115.41498 | 30998 ft | 534 kts | 44° |
| 2026-04-24 02:29 | 35.94598 | -115.34658 | 30993 ft | 533 kts | 44° |
| 2026-04-24 02:30 | 35.99529 | -115.27805 | 30964 ft | 533 kts | 44° |
| 2026-04-24 02:30 | 36.04452 | -115.20953 | 30936 ft | 533 kts | 44° |
| 2026-04-24 02:31 | 36.09485 | -115.14258 | 30932 ft | 528 kts | 37° |
| 2026-04-24 02:31 | 36.15022 | -115.08326 | 30944 ft | 526 kts | 35° |
| 2026-04-24 02:32 | 36.20597 | -115.02433 | 30889 ft | 527 kts | 35° |
| 2026-04-24 02:32 | 36.26108 | -114.96509 | 30888 ft | 528 kts | 36° |
| 2026-04-24 02:33 | 36.31645 | -114.90508 | 30873 ft | 528 kts | 36° |
| 2026-04-24 02:33 | 36.37177 | -114.84505 | 30869 ft | 528 kts | 36° |
| 2026-04-24 02:34 | 36.42705 | -114.78502 | 30854 ft | 527 kts | 36° |
| 2026-04-24 02:34 | 36.48217 | -114.72493 | 30855 ft | 527 kts | 36° |
| 2026-04-24 02:35 | 36.53717 | -114.66480 | 30855 ft | 526 kts | 36° |
| 2026-04-24 02:35 | 36.59173 | -114.60504 | 30851 ft | 526 kts | 36° |
| 2026-04-24 02:36 | 36.64661 | -114.54482 | 30842 ft | 526 kts | 36° |
| 2026-04-24 02:36 | 36.70156 | -114.48480 | 30854 ft | 524 kts | 33° |
| 2026-04-24 02:37 | 36.76078 | -114.43335 | 30880 ft | 515 kts | 25° |
| 2026-04-24 02:37 | 36.82179 | -114.38655 | 30868 ft | 514 kts | 25° |
| 2026-04-24 02:38 | 36.88267 | -114.33945 | 30869 ft | 515 kts | 25° |
| 2026-04-24 02:38 | 36.94315 | -114.29203 | 30864 ft | 516 kts | 25° |
| 2026-04-24 02:39 | 37.00384 | -114.24411 | 30882 ft | 516 kts | 25° |
| 2026-04-24 02:39 | 37.06455 | -114.19625 | 30902 ft | 515 kts | 25° |
| 2026-04-24 02:40 | 37.12520 | -114.14817 | 30891 ft | 515 kts | 25° |
| 2026-04-24 02:40 | 37.18581 | -114.10008 | 30882 ft | 515 kts | 25° |
| 2026-04-24 02:41 | 37.24639 | -114.05197 | 30909 ft | 515 kts | 25° |
| 2026-04-24 02:41 | 37.30670 | -114.00400 | 30915 ft | 516 kts | 25° |
| 2026-04-24 02:42 | 37.36731 | -113.95569 | 30917 ft | 516 kts | 25° |
| 2026-04-24 02:42 | 37.42787 | -113.90729 | 30922 ft | 515 kts | 25° |
| 2026-04-24 02:43 | 37.48846 | -113.85880 | 30919 ft | 515 kts | 25° |
| 2026-04-24 02:43 | 37.54890 | -113.81033 | 30960 ft | 515 kts | 25° |
| 2026-04-24 02:44 | 37.60926 | -113.76182 | 30921 ft | 513 kts | 25° |
| 2026-04-24 02:44 | 37.66945 | -113.71335 | 30943 ft | 513 kts | 25° |
| 2026-04-24 02:45 | 37.72920 | -113.66515 | 30925 ft | 512 kts | 25° |
| 2026-04-24 02:45 | 37.78925 | -113.61661 | 30927 ft | 512 kts | 25° |
| 2026-04-24 02:46 | 37.84928 | -113.56798 | 30940 ft | 512 kts | 25° |
| 2026-04-24 02:46 | 37.90898 | -113.51908 | 30938 ft | 513 kts | 28° |
| 2026-04-24 02:47 | 37.96374 | -113.46010 | 30938 ft | 523 kts | 40° |
| 2026-04-24 02:47 | 38.01277 | -113.39191 | 30956 ft | 523 kts | 42° |
| 2026-04-24 02:48 | 38.06155 | -113.32336 | 30951 ft | 523 kts | 41° |
| 2026-04-24 02:48 | 38.11022 | -113.25563 | 30977 ft | 522 kts | 42° |
| 2026-04-24 02:49 | 38.15924 | -113.18773 | 30975 ft | 519 kts | 42° |
| 2026-04-24 02:49 | 38.20798 | -113.12017 | 30979 ft | 517 kts | 42° |
| 2026-04-24 02:50 | 38.25648 | -113.05276 | 31004 ft | 515 kts | 42° |
| 2026-04-24 02:50 | 38.30477 | -112.98545 | 31007 ft | 514 kts | 42° |
| 2026-04-24 02:51 | 38.35293 | -112.91818 | 31022 ft | 514 kts | 42° |
| 2026-04-24 02:51 | 38.40114 | -112.85069 | 31014 ft | 515 kts | 42° |
| 2026-04-24 02:52 | 38.44940 | -112.78300 | 31015 ft | 516 kts | 42° |
| 2026-04-24 02:52 | 38.49767 | -112.71518 | 31017 ft | 516 kts | 43° |
| 2026-04-24 02:53 | 38.54585 | -112.64726 | 30997 ft | 516 kts | 43° |
| 2026-04-24 02:53 | 38.58587 | -112.59074 | 30991 ft | 515 kts | 43° |
| 2026-04-24 02:54 | 38.64177 | -112.51165 | 31014 ft | 515 kts | 43° |
| 2026-04-24 02:54 | 38.68208 | -112.45452 | 31030 ft | 516 kts | 43° |
| 2026-04-24 02:55 | 38.72985 | -112.38666 | 31031 ft | 516 kts | 43° |
| 2026-04-24 02:55 | 38.77776 | -112.31840 | 31053 ft | 514 kts | 43° |
| 2026-04-24 02:56 | 38.82559 | -112.25016 | 31039 ft | 514 kts | 43° |
| 2026-04-24 02:56 | 38.87323 | -112.18212 | 31033 ft | 512 kts | 43° |
| 2026-04-24 02:57 | 38.92063 | -112.11410 | 31052 ft | 511 kts | 43° |
| 2026-04-24 02:57 | 38.96808 | -112.04600 | 31036 ft | 512 kts | 43° |
| 2026-04-24 02:58 | 39.01801 | -111.98094 | 31028 ft | 507 kts | 34° |
| 2026-04-24 02:58 | 39.07397 | -111.92625 | 31024 ft | 505 kts | 31° |
| 2026-04-24 02:59 | 39.13001 | -111.87244 | 31040 ft | 506 kts | 32° |
| 2026-04-24 02:59 | 39.18622 | -111.81776 | 31040 ft | 507 kts | 32° |
| 2026-04-24 03:00 | 39.24234 | -111.76261 | 31043 ft | 507 kts | 32° |
| 2026-04-24 03:00 | 39.29832 | -111.70737 | 31055 ft | 506 kts | 32° |
| 2026-04-24 03:01 | 39.35420 | -111.65214 | 31035 ft | 505 kts | 32° |
| 2026-04-24 03:01 | 39.41008 | -111.59682 | 31030 ft | 505 kts | 32° |
| 2026-04-24 03:02 | 39.46581 | -111.54156 | 31027 ft | 504 kts | 32° |
| 2026-04-24 03:02 | 39.52149 | -111.48623 | 31035 ft | 504 kts | 32° |
| 2026-04-24 03:03 | 39.57716 | -111.43080 | 31044 ft | 504 kts | 32° |
| 2026-04-24 03:03 | 39.63241 | -111.37566 | 31033 ft | 504 kts | 32° |
| 2026-04-24 03:04 | 39.68831 | -111.31975 | 31033 ft | 504 kts | 32° |
| 2026-04-24 03:04 | 39.74347 | -111.26449 | 31026 ft | 503 kts | 32° |
| 2026-04-24 03:05 | 39.79882 | -111.20889 | 31059 ft | 502 kts | 32° |
| 2026-04-24 03:05 | 39.85426 | -111.15310 | 31045 ft | 503 kts | 32° |
| 2026-04-24 03:06 | 39.90960 | -111.09731 | 31036 ft | 503 kts | 33° |
| 2026-04-24 03:06 | 39.96449 | -111.04185 | 31038 ft | 502 kts | 33° |
| 2026-04-24 03:07 | 40.01974 | -110.98590 | 31029 ft | 502 kts | 33° |
| 2026-04-24 03:07 | 40.07494 | -110.92989 | 31033 ft | 502 kts | 33° |
| 2026-04-24 03:08 | 40.15771 | -110.84568 | 31009 ft | 502 kts | 33° |
| 2026-04-24 03:09 | 40.21273 | -110.78956 | 31022 ft | 500 kts | 33° |
| 2026-04-24 03:09 | 40.26751 | -110.73355 | 30998 ft | 499 kts | 33° |
| 2026-04-24 03:10 | 40.32207 | -110.67766 | 31013 ft | 497 kts | 34° |
| 2026-04-24 03:10 | 40.37605 | -110.62224 | 31002 ft | 496 kts | 34° |
| 2026-04-24 03:11 | 40.43023 | -110.56650 | 30980 ft | 494 kts | 34° |
| 2026-04-24 03:11 | 40.48431 | -110.51072 | 30993 ft | 494 kts | 34° |
| 2026-04-24 03:12 | 40.53836 | -110.45493 | 30984 ft | 494 kts | 34° |
| 2026-04-24 03:12 | 40.59240 | -110.39899 | 30983 ft | 495 kts | 34° |
| 2026-04-24 03:13 | 40.64652 | -110.34282 | 30991 ft | 495 kts | 34° |
| 2026-04-24 03:13 | 40.70065 | -110.28653 | 30960 ft | 496 kts | 35° |
| 2026-04-24 03:14 | 40.75474 | -110.23013 | 30973 ft | 496 kts | 35° |
| 2026-04-24 03:14 | 40.80853 | -110.17405 | 30967 ft | 496 kts | 34° |
| 2026-04-24 03:15 | 40.86255 | -110.11751 | 30980 ft | 495 kts | 34° |
| 2026-04-24 03:15 | 40.91650 | -110.06092 | 30965 ft | 493 kts | 34° |
| 2026-04-24 03:16 | 40.97016 | -110.00453 | 30963 ft | 492 kts | 34° |
| 2026-04-24 03:16 | 41.02368 | -109.94818 | 30952 ft | 491 kts | 34° |
| 2026-04-24 03:17 | 41.07716 | -109.89174 | 30952 ft | 491 kts | 34° |
| 2026-04-24 03:17 | 41.13058 | -109.83525 | 30953 ft | 491 kts | 34° |
| 2026-04-24 03:18 | 41.18397 | -109.77861 | 30973 ft | 492 kts | 33° |
| 2026-04-24 03:18 | 41.23730 | -109.72200 | 30960 ft | 494 kts | 33° |
| 2026-04-24 03:19 | 41.29113 | -109.66475 | 30948 ft | 496 kts | 33° |
| 2026-04-24 03:19 | 41.34508 | -109.60720 | 30966 ft | 498 kts | 33° |
| 2026-04-24 03:20 | 41.39924 | -109.54929 | 30962 ft | 500 kts | 33° |
| 2026-04-24 03:20 | 41.45352 | -109.49112 | 30952 ft | 500 kts | 33° |
| 2026-04-24 03:21 | 41.50775 | -109.43284 | 30984 ft | 500 kts | 33° |
| 2026-04-24 03:21 | 41.56200 | -109.37448 | 30965 ft | 500 kts | 33° |
| 2026-04-24 03:22 | 41.61618 | -109.31606 | 30984 ft | 501 kts | 33° |
| 2026-04-24 03:22 | 41.67011 | -109.25776 | 30992 ft | 501 kts | 33° |
| 2026-04-24 03:23 | 41.72442 | -109.19892 | 30993 ft | 502 kts | 33° |
| 2026-04-24 03:23 | 41.77877 | -109.13989 | 30971 ft | 503 kts | 33° |
| 2026-04-24 03:24 | 41.83308 | -109.08077 | 30972 ft | 503 kts | 33° |
| 2026-04-24 03:24 | 41.88735 | -109.02158 | 30938 ft | 503 kts | 33° |
| 2026-04-24 03:25 | 41.94153 | -108.96234 | 30888 ft | 501 kts | 33° |
| 2026-04-24 03:25 | 41.99555 | -108.90315 | 30883 ft | 500 kts | 33° |
| 2026-04-24 03:26 | 42.04943 | -108.84397 | 30860 ft | 500 kts | 33° |
| 2026-04-24 03:26 | 42.10339 | -108.78458 | 30857 ft | 501 kts | 33° |
| 2026-04-24 03:27 | 42.15680 | -108.72566 | 30842 ft | 499 kts | 34° |
| 2026-04-24 03:27 | 42.21032 | -108.66645 | 30804 ft | 496 kts | 33° |
| 2026-04-24 03:28 | 42.26369 | -108.60730 | 30805 ft | 494 kts | 34° |
| 2026-04-24 03:28 | 42.31679 | -108.54834 | 30813 ft | 494 kts | 33° |
| 2026-04-24 03:29 | 42.37001 | -108.48914 | 30796 ft | 496 kts | 33° |
| 2026-04-24 03:29 | 42.42343 | -108.42956 | 30812 ft | 499 kts | 33° |
| 2026-04-24 03:30 | 42.47732 | -108.36937 | 30778 ft | 511 kts | 33° |
| 2026-04-24 03:30 | 42.53265 | -108.30742 | 30772 ft | 519 kts | 33° |
| 2026-04-24 03:31 | 42.58820 | -108.24491 | 30755 ft | 517 kts | 33° |
| 2026-04-24 03:31 | 42.64332 | -108.18272 | 30754 ft | 513 kts | 33° |
| 2026-04-24 03:32 | 42.69803 | -108.12092 | 30781 ft | 510 kts | 33° |
| 2026-04-24 03:32 | 42.75256 | -108.05923 | 30783 ft | 509 kts | 33° |
| 2026-04-24 03:33 | 42.80663 | -107.99794 | 30812 ft | 509 kts | 33° |
| 2026-04-24 03:33 | 42.86107 | -107.93605 | 30796 ft | 509 kts | 33° |
| 2026-04-24 03:34 | 42.91547 | -107.87405 | 30802 ft | 509 kts | 33° |
| 2026-04-24 03:34 | 42.96983 | -107.81195 | 30805 ft | 509 kts | 33° |
| 2026-04-24 03:35 | 43.01490 | -107.76034 | 30820 ft | 509 kts | 33° |
| 2026-04-24 03:35 | 43.07838 | -107.68749 | 30864 ft | 510 kts | 33° |
| 2026-04-24 03:36 | 43.13282 | -107.62488 | 30853 ft | 511 kts | 33° |
| 2026-04-24 03:36 | 43.18693 | -107.56248 | 30882 ft | 512 kts | 33° |
| 2026-04-24 03:37 | 43.24172 | -107.49911 | 30894 ft | 512 kts | 33° |
| 2026-04-24 03:37 | 43.29594 | -107.43626 | 30898 ft | 513 kts | 33° |
| 2026-04-24 03:38 | 43.35049 | -107.37289 | 30905 ft | 513 kts | 34° |
| 2026-04-24 03:38 | 43.40503 | -107.30937 | 30899 ft | 514 kts | 34° |
| 2026-04-24 03:39 | 43.45968 | -107.24555 | 30911 ft | 514 kts | 34° |
| 2026-04-24 03:39 | 43.51385 | -107.18217 | 30913 ft | 514 kts | 34° |
| 2026-04-24 03:40 | 43.56830 | -107.11829 | 30933 ft | 514 kts | 34° |
| 2026-04-24 03:40 | 43.62272 | -107.05429 | 30922 ft | 514 kts | 34° |
| 2026-04-24 03:41 | 43.66831 | -107.00055 | 30925 ft | 515 kts | 34° |
| 2026-04-24 03:41 | 43.72276 | -106.93622 | 30929 ft | 515 kts | 34° |
| 2026-04-24 03:42 | 43.77702 | -106.87196 | 30951 ft | 518 kts | 35° |
| 2026-04-24 03:42 | 43.83179 | -106.80693 | 30965 ft | 519 kts | 35° |
| 2026-04-24 03:43 | 43.88665 | -106.74162 | 30966 ft | 520 kts | 35° |
| 2026-04-24 03:43 | 43.94160 | -106.67605 | 30964 ft | 521 kts | 36° |
| 2026-04-24 03:44 | 43.99670 | -106.61013 | 30973 ft | 524 kts | 36° |
| 2026-04-24 03:44 | 44.05189 | -106.54394 | 30972 ft | 525 kts | 36° |
| 2026-04-24 03:45 | 44.10719 | -106.47743 | 30978 ft | 526 kts | 36° |
| 2026-04-24 03:45 | 44.16243 | -106.41082 | 30971 ft | 526 kts | 36° |
| 2026-04-24 03:46 | 44.21737 | -106.34440 | 30978 ft | 527 kts | 36° |
| 2026-04-24 03:46 | 44.27277 | -106.27727 | 30956 ft | 528 kts | 36° |
| 2026-04-24 03:47 | 44.32818 | -106.20995 | 30948 ft | 528 kts | 36° |
| 2026-04-24 03:47 | 44.38358 | -106.14244 | 30941 ft | 528 kts | 37° |
| 2026-04-24 03:48 | 44.43890 | -106.07487 | 30964 ft | 528 kts | 36° |
| 2026-04-24 03:48 | 44.49428 | -106.00710 | 30934 ft | 528 kts | 36° |
| 2026-04-24 03:49 | 44.55183 | -105.94392 | 30920 ft | 525 kts | 32° |
| 2026-04-24 03:49 | 44.61004 | -105.88320 | 30926 ft | 525 kts | 32° |
| 2026-04-24 03:50 | 44.66906 | -105.82142 | 30953 ft | 526 kts | 32° |
| 2026-04-24 03:50 | 44.72725 | -105.75987 | 30908 ft | 528 kts | 32° |
| 2026-04-24 03:51 | 44.78588 | -105.69745 | 30898 ft | 528 kts | 33° |
| 2026-04-24 03:51 | 44.84442 | -105.63491 | 30897 ft | 528 kts | 33° |
| 2026-04-24 03:52 | 44.90298 | -105.57222 | 30945 ft | 528 kts | 33° |
| 2026-04-24 03:52 | 44.96172 | -105.50923 | 30908 ft | 531 kts | 33° |
| 2026-04-24 03:53 | 45.02053 | -105.44598 | 30883 ft | 532 kts | 33° |
| 2026-04-24 03:53 | 45.07928 | -105.38262 | 30892 ft | 531 kts | 33° |
| 2026-04-24 03:54 | 45.13764 | -105.31951 | 30942 ft | 530 kts | 33° |
| 2026-04-24 03:54 | 45.19637 | -105.25585 | 30900 ft | 532 kts | 33° |
| 2026-04-24 03:55 | 45.25519 | -105.19192 | 30900 ft | 533 kts | 33° |
| 2026-04-24 03:55 | 45.31407 | -105.12774 | 30897 ft | 534 kts | 33° |
| 2026-04-24 03:56 | 45.37300 | -105.06334 | 30931 ft | 534 kts | 34° |
| 2026-04-24 03:56 | 45.43193 | -104.99876 | 30910 ft | 535 kts | 34° |
| 2026-04-24 03:57 | 45.49047 | -104.93444 | 30903 ft | 535 kts | 34° |
| 2026-04-24 03:57 | 45.54935 | -104.86957 | 30908 ft | 535 kts | 34° |
| 2026-04-24 03:58 | 45.60823 | -104.80452 | 30952 ft | 535 kts | 34° |
| 2026-04-24 03:58 | 45.66709 | -104.73933 | 30931 ft | 535 kts | 34° |
| 2026-04-24 03:59 | 45.72586 | -104.67404 | 30921 ft | 534 kts | 34° |